createdAt,value
2023-11-02T00:00:47.186Z,9.40
2023-11-02T00:03:30.896Z,9.39
2023-11-02T00:06:12.461Z,9.42
2023-11-02T00:08:44.863Z,9.45
2023-11-02T00:11:52.986Z,9.48
2023-11-02T00:17:01.678Z,9.51
2023-11-02T00:19:39.534Z,9.57
2023-11-02T00:22:12.189Z,9.58
2023-11-02T00:24:42.118Z,9.60
2023-11-02T00:27:15.060Z,9.65
2023-11-02T00:29:42.478Z,9.66
2023-11-02T00:32:12.143Z,9.72
2023-11-02T00:34:45.127Z,9.73
2023-11-02T00:37:11.809Z,9.74
2023-11-02T00:39:41.323Z,9.76
2023-11-02T00:42:07.981Z,9.78
2023-11-02T00:44:34.570Z,9.80
2023-11-02T00:47:05.339Z,9.78
2023-11-02T00:49:45.755Z,9.82
2023-11-02T00:52:16.062Z,9.85
2023-11-02T00:54:46.467Z,9.86
2023-11-02T00:57:18.220Z,9.91
2023-11-02T01:02:34.816Z,9.95
2023-11-02T01:05:05.991Z,9.97
2023-11-02T01:07:36.493Z,9.98
2023-11-02T01:10:05.896Z,10.00
2023-11-02T01:12:39.180Z,10.04
2023-11-02T01:15:28.875Z,10.07
2023-11-02T01:17:59.558Z,10.09
2023-11-02T01:21:10.730Z,10.12
2023-11-02T01:23:40.270Z,10.17
2023-11-02T01:26:07.196Z,10.18
2023-11-02T01:28:54.048Z,10.21
2023-11-02T01:31:25.081Z,10.22
2023-11-02T01:34:00.673Z,10.24
2023-11-02T01:36:32.040Z,10.25
2023-11-02T01:39:02.525Z,10.26
2023-11-02T01:41:38.474Z,10.29
2023-11-02T01:44:55.546Z,10.29
2023-11-02T01:51:09.464Z,10.33
2023-11-02T01:53:49.603Z,10.33
2023-11-02T01:56:30.633Z,10.32
2023-11-02T01:59:50.910Z,10.33
2023-11-02T02:02:33.056Z,10.31
2023-11-02T02:05:47.646Z,10.33
2023-11-02T02:08:27.430Z,10.31
2023-11-02T02:11:29.819Z,10.32
2023-11-02T02:14:41.372Z,10.32
2023-11-02T02:17:19.998Z,10.30
2023-11-02T02:20:14.100Z,10.28
2023-11-02T02:22:56.763Z,10.27
2023-11-02T02:25:37.432Z,10.28
2023-11-02T02:28:09.652Z,10.26
2023-11-02T02:31:01.072Z,10.26
2023-11-02T02:33:49.565Z,10.27
2023-11-02T02:36:41.625Z,10.27
2023-11-02T02:39:15.981Z,10.27
2023-11-02T02:42:07.060Z,10.30
2023-11-02T02:44:35.872Z,10.32
2023-11-02T02:50:36.172Z,10.33
2023-11-02T02:53:23.280Z,10.40
2023-11-02T02:56:38.120Z,10.42
2023-11-02T02:59:07.406Z,10.44
2023-11-02T03:01:42.212Z,10.47
2023-11-02T03:07:17.630Z,10.52
2023-11-02T03:09:55.962Z,10.52
2023-11-02T03:12:31.150Z,10.52
2023-11-02T03:15:12.840Z,10.55
2023-11-02T03:18:14.756Z,10.57
2023-11-02T03:20:47.235Z,10.58
2023-11-02T03:23:33.698Z,10.65
2023-11-02T03:26:29.956Z,10.66
2023-11-02T03:29:15.405Z,10.67
2023-11-02T03:31:59.522Z,10.70
2023-11-02T03:34:40.704Z,10.71
2023-11-02T03:37:41.324Z,10.75
2023-11-02T03:40:27.886Z,10.72
2023-11-02T03:43:17.568Z,10.70
2023-11-02T03:45:49.635Z,10.71
2023-11-02T03:48:26.228Z,10.73
2023-11-02T03:51:26.814Z,10.73
2023-11-02T03:54:11.778Z,10.78
2023-11-02T03:56:53.162Z,10.78
2023-11-02T03:59:47.451Z,10.79
2023-11-02T04:02:47.478Z,10.82
2023-11-02T04:05:44.973Z,10.83
2023-11-02T04:08:19.663Z,10.87
2023-11-02T04:11:03.467Z,10.90
2023-11-02T04:13:54.140Z,10.90
2023-11-02T04:16:24.436Z,10.90
2023-11-02T04:18:52.075Z,10.90
2023-11-02T04:21:19.042Z,10.91
2023-11-02T04:23:45.484Z,10.91
2023-11-02T04:26:11.983Z,10.90
2023-11-02T04:28:41.875Z,10.91
2023-11-02T04:31:11.419Z,10.90
2023-11-02T04:33:42.890Z,10.90
2023-11-02T04:36:12.822Z,10.94
2023-11-02T04:38:46.867Z,10.93
2023-11-02T04:41:16.038Z,10.94
2023-11-02T04:43:42.764Z,10.95
2023-11-02T04:46:12.021Z,10.96
2023-11-02T04:48:38.512Z,10.98
2023-11-02T04:51:05.471Z,10.99
2023-11-02T04:53:40.898Z,11.03
2023-11-02T04:56:07.640Z,11.03
2023-11-02T05:01:24.116Z,11.02
2023-11-02T05:03:52.509Z,11.00
2023-11-02T05:06:22.224Z,11.01
2023-11-02T05:08:51.669Z,11.01
2023-11-02T05:11:20.769Z,11.02
2023-11-02T05:13:47.128Z,11.05
2023-11-02T05:16:13.525Z,11.03
2023-11-02T05:18:39.990Z,11.04
2023-11-02T05:21:09.822Z,11.08
2023-11-02T05:23:39.201Z,11.09
2023-11-02T05:28:47.615Z,11.09
2023-11-02T05:31:13.996Z,11.10
2023-11-02T05:33:43.480Z,11.09
2023-11-02T05:36:12.633Z,11.12
2023-11-02T05:38:39.005Z,11.13
2023-11-02T05:41:08.439Z,11.11
2023-11-02T05:43:35.467Z,11.12
2023-11-02T05:46:08.727Z,11.13
2023-11-02T05:48:35.176Z,11.12
2023-11-02T05:51:04.047Z,11.12
2023-11-02T05:53:33.647Z,11.09
2023-11-02T05:56:00.071Z,11.05
2023-11-02T05:58:29.202Z,10.97
2023-11-02T06:00:58.854Z,10.88
2023-11-02T06:03:30.743Z,10.84
2023-11-02T06:05:58.741Z,10.83
2023-11-02T06:08:25.141Z,10.83
2023-11-02T06:10:54.615Z,10.84
2023-11-02T06:13:24.049Z,10.86
2023-11-02T06:15:50.465Z,10.88
2023-11-02T06:18:20.450Z,10.90
2023-11-02T06:20:46.857Z,10.93
2023-11-02T06:23:13.274Z,10.96
2023-11-02T06:25:48.020Z,10.95
2023-11-02T06:28:14.842Z,10.91
2023-11-02T06:30:45.833Z,10.86
2023-11-02T06:33:25.229Z,10.83
2023-11-02T06:35:57.046Z,10.78
2023-11-02T06:38:29.189Z,10.73
2023-11-02T06:40:58.724Z,10.72
2023-11-02T06:43:25.213Z,10.70
2023-11-02T06:45:54.629Z,10.75
2023-11-02T06:48:22.253Z,10.77
2023-11-02T06:50:51.430Z,10.76
2023-11-02T06:53:18.097Z,10.77
2023-11-02T06:55:44.641Z,10.83
2023-11-02T06:58:11.104Z,10.86
2023-11-02T07:00:45.877Z,10.90
2023-11-02T07:03:12.388Z,10.91
2023-11-02T07:08:26.604Z,10.86
2023-11-02T07:10:53.081Z,10.84
2023-11-02T07:13:20.502Z,10.85
2023-11-02T07:15:47.502Z,10.86
2023-11-02T07:18:17.522Z,10.90
2023-11-02T07:20:46.529Z,10.93
2023-11-02T07:23:19.560Z,10.94
2023-11-02T07:25:46.201Z,10.97
2023-11-02T07:28:16.086Z,11.02
2023-11-02T07:30:45.449Z,11.02
2023-11-02T07:35:58.935Z,11.07
2023-11-02T07:38:29.648Z,11.16
2023-11-02T07:41:00.887Z,11.23
2023-11-02T07:43:30.274Z,11.26
2023-11-02T07:45:56.775Z,11.26
2023-11-02T07:48:26.801Z,11.29
2023-11-02T07:50:56.344Z,11.29
2023-11-02T07:56:07.751Z,11.31
2023-11-02T07:58:38.612Z,11.34
2023-11-02T08:01:09.119Z,11.40
2023-11-02T08:03:35.610Z,11.42
2023-11-02T08:06:02.552Z,11.44
2023-11-02T08:08:29.288Z,11.48
2023-11-02T08:10:59.649Z,11.54
2023-11-02T08:13:26.084Z,11.56
2023-11-02T08:15:52.472Z,11.59
2023-11-02T08:18:23.963Z,11.63
2023-11-02T08:20:54.228Z,11.68
2023-11-02T08:23:26.545Z,11.70
2023-11-02T08:25:56.964Z,11.70
2023-11-02T08:28:31.298Z,11.73
2023-11-02T08:30:58.925Z,11.74
2023-11-02T08:33:30.942Z,11.78
2023-11-02T08:35:57.559Z,11.82
2023-11-02T08:38:24.001Z,12.00
2023-11-02T08:40:58.741Z,12.29
2023-11-02T08:43:25.154Z,12.52
2023-11-02T08:45:56.587Z,12.59
2023-11-02T08:48:27.740Z,12.58
2023-11-02T08:50:56.820Z,12.64
2023-11-02T08:53:25.912Z,12.68
2023-11-02T08:55:52.301Z,12.70
2023-11-02T08:58:21.737Z,12.71
2023-11-02T09:00:51.787Z,12.71
2023-11-02T09:03:18.250Z,12.76
2023-11-02T09:05:47.661Z,12.83
2023-11-02T09:08:14.149Z,12.87
2023-11-02T09:10:40.582Z,12.95
2023-11-02T09:13:15.410Z,13.01
2023-11-02T09:15:41.946Z,13.07
2023-11-02T09:18:12.898Z,13.14
2023-11-02T09:20:42.154Z,13.24
2023-11-02T09:23:08.611Z,13.28
2023-11-02T09:25:49.164Z,13.49
2023-11-02T09:28:35.635Z,13.68
2023-11-02T09:31:05.935Z,13.81
2023-11-02T09:33:32.381Z,13.78
2023-11-02T09:36:11.997Z,13.75
2023-11-02T09:38:44.638Z,13.78
2023-11-02T09:41:14.117Z,13.91
2023-11-02T09:43:42.512Z,13.98
2023-11-02T09:46:09.307Z,14.02
2023-11-02T09:48:35.769Z,13.99
2023-11-02T09:51:02.284Z,13.93
2023-11-02T09:53:31.772Z,13.87
2023-11-02T09:56:02.278Z,13.80
2023-11-02T09:58:43.811Z,13.78
2023-11-02T10:01:35.998Z,13.74
2023-11-02T10:04:05.545Z,13.67
2023-11-02T10:09:20.866Z,13.68
2023-11-02T10:11:50.261Z,13.68
2023-11-02T10:17:05.945Z,13.74
2023-11-02T10:19:33.654Z,13.81
2023-11-02T10:22:08.640Z,13.79
2023-11-02T10:24:36.738Z,13.75
2023-11-02T10:27:19.361Z,13.68
2023-11-02T10:29:51.699Z,13.75
2023-11-02T10:32:22.796Z,13.72
2023-11-02T10:34:53.324Z,13.75
2023-11-02T10:37:40.223Z,13.81
2023-11-02T10:40:07.143Z,14.13
2023-11-02T10:42:39.147Z,14.30
2023-11-02T10:45:07.138Z,14.41
2023-11-02T10:47:39.460Z,14.56
2023-11-02T10:50:11.644Z,14.49
2023-11-02T10:52:52.281Z,14.57
2023-11-02T10:55:40.615Z,14.56
2023-11-02T10:58:10.625Z,14.52
2023-11-02T11:00:37.652Z,14.58
2023-11-02T11:03:08.896Z,14.61
2023-11-02T11:05:40.911Z,14.64
2023-11-02T11:08:11.818Z,14.63
2023-11-02T11:10:43.331Z,14.59
2023-11-02T11:13:13.421Z,14.47
2023-11-02T11:15:46.308Z,14.46
2023-11-02T11:18:17.206Z,14.49
2023-11-02T11:20:46.198Z,14.58
2023-11-02T11:23:19.612Z,14.63
2023-11-02T11:26:08.008Z,14.72
2023-11-02T11:28:39.227Z,14.76
2023-11-02T11:31:11.242Z,14.74
2023-11-02T11:33:51.818Z,14.71
2023-11-02T11:36:34.095Z,14.63
2023-11-02T11:39:36.353Z,14.61
2023-11-02T11:42:03.318Z,14.58
2023-11-02T11:44:35.338Z,14.58
2023-11-02T11:47:03.247Z,14.59
2023-11-02T11:49:38.701Z,14.49
2023-11-02T11:52:06.910Z,14.40
2023-11-02T11:54:36.915Z,14.22
2023-11-02T11:57:06.352Z,13.95
2023-11-02T12:00:03.025Z,13.69
2023-11-02T12:02:40.943Z,13.59
2023-11-02T12:05:07.402Z,13.61
2023-11-02T12:07:40.985Z,13.75
2023-11-02T12:10:13.052Z,13.79
2023-11-02T12:12:46.429Z,13.78
2023-11-02T12:15:17.041Z,13.78
2023-11-02T12:18:17.087Z,13.76
2023-11-02T12:20:47.891Z,13.69
2023-11-02T12:23:17.564Z,13.61
2023-11-02T12:25:44.267Z,13.54
2023-11-02T12:28:14.791Z,13.45
2023-11-02T12:30:45.072Z,13.37
2023-11-02T12:33:23.213Z,13.30
2023-11-02T12:35:59.234Z,13.17
2023-11-02T12:38:49.655Z,13.03
2023-11-02T12:41:29.947Z,12.96
2023-11-02T12:44:12.252Z,12.90
2023-11-02T12:46:49.824Z,12.86
2023-11-02T12:49:22.979Z,12.79
2023-11-02T12:51:55.435Z,12.80
2023-11-02T12:57:20.901Z,12.78
2023-11-02T12:59:48.959Z,12.64
2023-11-02T13:02:32.260Z,12.49
2023-11-02T13:05:01.318Z,12.40
2023-11-02T13:07:39.015Z,12.40
2023-11-02T13:10:20.055Z,12.46
2023-11-02T13:12:46.778Z,12.52
2023-11-02T13:15:17.216Z,12.58
2023-11-02T13:17:47.927Z,12.64
2023-11-02T13:20:26.565Z,12.69
2023-11-02T13:22:53.218Z,12.70
2023-11-02T13:25:24.403Z,12.72
2023-11-02T13:27:50.927Z,12.70
2023-11-02T13:30:26.245Z,12.67
2023-11-02T13:32:55.548Z,12.61
2023-11-02T13:35:27.777Z,12.59
2023-11-02T13:37:57.123Z,12.57
2023-11-02T13:43:13.211Z,12.49
2023-11-02T13:45:39.778Z,12.46
2023-11-02T13:48:06.353Z,12.42
2023-11-02T13:50:37.367Z,12.42
2023-11-02T13:53:04.407Z,12.42
2023-11-02T13:55:34.569Z,12.40
2023-11-02T13:58:01.016Z,12.34
2023-11-02T14:00:27.499Z,12.31
2023-11-02T14:02:54.096Z,12.30
2023-11-02T14:05:23.891Z,12.23
2023-11-02T14:07:51.962Z,12.16
2023-11-02T14:10:21.027Z,12.12
2023-11-02T14:12:59.260Z,12.12
2023-11-02T14:15:28.838Z,12.11
2023-11-02T14:17:58.206Z,12.05
2023-11-02T14:20:29.211Z,12.01
2023-11-02T14:22:59.330Z,12.01
2023-11-02T14:25:26.067Z,11.96
2023-11-02T14:27:52.592Z,11.86
2023-11-02T14:30:21.293Z,11.69
2023-11-02T14:32:48.362Z,11.56
2023-11-02T14:35:18.692Z,11.52
2023-11-02T14:37:47.850Z,11.46
2023-11-02T14:40:19.606Z,11.37
2023-11-02T14:42:49.121Z,11.35
2023-11-02T14:45:21.113Z,11.29
2023-11-02T14:47:53.402Z,11.29
2023-11-02T14:50:24.857Z,11.29
2023-11-02T14:52:55.499Z,11.27
2023-11-02T14:55:24.657Z,11.26
2023-11-02T14:57:57.160Z,11.23
2023-11-02T15:00:23.875Z,11.21
2023-11-02T15:02:54.097Z,11.18
2023-11-02T15:05:23.759Z,11.14
2023-11-02T15:10:38.831Z,11.06
2023-11-02T15:13:05.352Z,10.96
2023-11-02T15:15:31.815Z,10.92
2023-11-02T15:18:02.481Z,10.88
2023-11-02T15:20:29.060Z,10.84
2023-11-02T15:23:04.362Z,10.79
2023-11-02T15:25:34.926Z,10.71
2023-11-02T15:28:09.033Z,10.67
2023-11-02T15:30:39.207Z,10.60
2023-11-02T15:33:09.912Z,10.56
2023-11-02T15:35:39.536Z,10.51
2023-11-02T15:40:53.303Z,10.45
2023-11-02T15:43:22.925Z,10.41
2023-11-02T15:48:30.692Z,10.32
2023-11-02T15:51:04.179Z,10.29
2023-11-02T15:53:30.593Z,10.24
2023-11-02T15:56:03.061Z,10.21
2023-11-02T15:58:29.583Z,10.21
2023-11-02T16:00:56.111Z,10.18
2023-11-02T16:03:34.698Z,10.11
2023-11-02T16:06:12.790Z,10.06
2023-11-02T16:08:39.304Z,10.03
2023-11-02T16:11:06.799Z,10.00
2023-11-02T16:13:35.784Z,9.96
2023-11-02T16:16:17.215Z,9.96
2023-11-02T16:18:44.013Z,9.92
2023-11-02T16:21:14.292Z,9.92
2023-11-02T16:23:43.720Z,9.87
2023-11-02T16:26:14.362Z,9.85
2023-11-02T16:28:49.539Z,9.83
2023-11-02T16:31:26.003Z,9.78
2023-11-02T16:33:53.484Z,9.79
2023-11-02T16:36:53.099Z,9.82
2023-11-02T16:39:23.331Z,9.82
2023-11-02T16:41:55.407Z,9.81
2023-11-02T16:44:27.739Z,9.84
2023-11-02T16:46:59.629Z,9.86
2023-11-02T16:49:29.073Z,9.89
2023-11-02T16:51:58.720Z,9.90
2023-11-02T16:54:25.774Z,9.95
2023-11-02T16:56:55.231Z,10.00
2023-11-02T16:59:22.057Z,10.06
2023-11-02T17:01:48.837Z,10.07
2023-11-02T17:04:22.894Z,10.09
2023-11-02T17:06:51.873Z,10.09
2023-11-02T17:09:27.779Z,10.14
2023-11-02T17:11:54.223Z,10.17
2023-11-02T17:14:24.676Z,10.19
2023-11-02T17:16:51.909Z,10.22
2023-11-02T17:19:19.358Z,10.25
2023-11-02T17:21:57.444Z,10.29
2023-11-02T17:24:26.657Z,10.31
2023-11-02T17:26:56.012Z,10.33
2023-11-02T17:29:22.855Z,10.34
2023-11-02T17:31:59.687Z,10.36
2023-11-02T17:34:26.158Z,10.40
2023-11-02T17:37:03.574Z,10.44
2023-11-02T17:39:30.141Z,10.47
2023-11-02T17:41:59.442Z,10.51
2023-11-02T17:44:27.225Z,10.55
2023-11-02T17:46:53.681Z,10.55
2023-11-02T17:49:22.399Z,10.61
2023-11-02T17:51:51.870Z,10.66
2023-11-02T17:54:19.114Z,10.69
2023-11-02T17:56:47.729Z,10.71
2023-11-02T17:59:14.227Z,10.71
2023-11-02T18:01:40.689Z,10.74
2023-11-02T18:04:09.749Z,10.79
2023-11-02T18:06:37.871Z,10.83
2023-11-02T18:09:04.647Z,10.84
2023-11-02T18:11:40.148Z,10.84
2023-11-02T18:14:06.575Z,10.87
2023-11-02T18:16:33.073Z,10.89
2023-11-02T18:19:02.761Z,10.90
2023-11-02T18:21:36.330Z,10.91
2023-11-02T18:24:07.420Z,10.90
2023-11-02T18:26:36.858Z,10.96
2023-11-02T18:29:03.645Z,10.95
2023-11-02T18:31:36.419Z,10.95
2023-11-02T18:34:06.699Z,10.97
2023-11-02T18:36:33.941Z,10.96
2023-11-02T18:39:01.068Z,10.96
2023-11-02T18:41:30.912Z,10.97
2023-11-02T18:43:57.547Z,10.97
2023-11-02T18:46:24.083Z,10.97
2023-11-02T18:49:00.942Z,10.96
2023-11-02T18:51:28.243Z,11.00
2023-11-02T18:53:55.779Z,11.01
2023-11-02T18:56:26.384Z,11.00
2023-11-02T18:58:58.661Z,11.00
2023-11-02T19:01:27.979Z,11.00
2023-11-02T19:03:54.731Z,10.99
2023-11-02T19:06:33.941Z,10.99
2023-11-02T19:09:00.540Z,10.97
2023-11-02T19:11:27.019Z,10.97
2023-11-02T19:13:54.108Z,10.95
2023-11-02T19:16:20.960Z,10.97
2023-11-02T19:18:50.080Z,10.98
2023-11-02T19:21:19.608Z,10.95
2023-11-02T19:23:49.029Z,10.93
2023-11-02T19:26:20.876Z,10.93
2023-11-02T19:28:47.276Z,10.92
2023-11-02T19:31:22.755Z,10.92
2023-11-02T19:33:49.282Z,10.93
2023-11-02T19:36:18.114Z,10.93
2023-11-02T19:38:49.935Z,10.90
2023-11-02T19:41:21.624Z,10.90
2023-11-02T19:43:50.794Z,10.90
2023-11-02T19:46:30.261Z,10.86
2023-11-02T19:48:56.943Z,10.80
2023-11-02T19:51:33.527Z,10.72
2023-11-02T19:54:04.447Z,10.66
2023-11-02T19:56:36.480Z,10.59
2023-11-02T19:59:02.956Z,10.54
2023-11-02T20:01:32.897Z,10.52
2023-11-02T20:04:05.197Z,10.47
2023-11-02T20:06:45.177Z,10.42
2023-11-02T20:09:17.336Z,10.37
2023-11-02T20:11:44.227Z,10.33
2023-11-02T20:14:10.835Z,10.29
2023-11-02T20:16:40.606Z,10.25
2023-11-02T20:19:10.307Z,10.23
2023-11-02T20:21:39.875Z,10.22
2023-11-02T20:24:14.133Z,10.20
2023-11-02T20:26:42.439Z,10.13
2023-11-02T20:29:08.841Z,10.09
2023-11-02T20:31:35.233Z,10.06
2023-11-02T20:34:02.176Z,10.00
2023-11-02T20:36:30.502Z,9.94
2023-11-02T20:38:59.725Z,9.86
2023-11-02T20:41:26.540Z,9.84
2023-11-02T20:43:55.290Z,9.77
2023-11-02T20:46:25.074Z,9.72
2023-11-02T20:48:54.687Z,9.68
2023-11-02T20:51:24.185Z,9.63
2023-11-02T20:53:50.654Z,9.58
2023-11-02T20:56:22.543Z,9.54
2023-11-02T20:58:48.951Z,9.52
2023-11-02T21:01:15.462Z,9.49
2023-11-02T21:03:41.916Z,9.48
2023-11-02T21:06:13.841Z,9.43
2023-11-02T21:08:41.006Z,9.38
2023-11-02T21:11:21.874Z,9.35
2023-11-02T21:13:57.420Z,9.29
2023-11-02T21:16:23.830Z,9.23
2023-11-02T21:18:54.759Z,9.18
2023-11-02T21:21:21.258Z,9.09
2023-11-02T21:23:47.866Z,9.01
2023-11-02T21:26:23.669Z,8.93
2023-11-02T21:28:50.089Z,8.82
2023-11-02T21:31:19.882Z,8.72
2023-11-02T21:33:49.112Z,8.69
2023-11-02T21:36:23.089Z,8.59
2023-11-02T21:38:52.340Z,8.53
2023-11-02T21:41:30.288Z,8.49
2023-11-02T21:43:56.739Z,8.47
2023-11-02T21:46:26.996Z,8.40
2023-11-02T21:48:56.312Z,8.37
2023-11-02T21:51:23.213Z,8.36
2023-11-02T21:53:52.348Z,8.33
2023-11-02T21:56:22.489Z,8.27
2023-11-02T21:58:53.602Z,8.27
2023-11-02T22:01:23.724Z,8.27
2023-11-02T22:03:52.675Z,8.25
2023-11-02T22:06:19.570Z,8.23
2023-11-02T22:08:46.352Z,8.23
2023-11-02T22:11:12.741Z,8.22
2023-11-02T22:13:39.576Z,8.19
2023-11-02T22:16:08.709Z,8.19
2023-11-02T22:18:35.148Z,8.16
2023-11-02T22:21:01.595Z,8.17
2023-11-02T22:23:28.384Z,8.17
2023-11-02T22:25:57.983Z,8.19
2023-11-02T22:28:27.658Z,8.19
2023-11-02T22:31:01.245Z,8.21
2023-11-02T22:33:32.985Z,8.21
2023-11-02T22:36:04.967Z,8.24
2023-11-02T22:38:37.645Z,8.26
2023-11-02T22:41:05.066Z,8.24
2023-11-02T22:43:32.440Z,8.27
2023-11-02T22:46:05.954Z,8.30
2023-11-02T22:51:16.704Z,8.30
2023-11-02T22:53:48.986Z,8.33
2023-11-02T22:56:17.051Z,8.34
2023-11-02T22:58:46.892Z,8.36
2023-11-02T23:01:17.859Z,8.40
2023-11-02T23:03:50.124Z,8.41
2023-11-02T23:06:17.903Z,8.42
2023-11-02T23:08:50.952Z,8.46
2023-11-02T23:11:21.671Z,8.47
2023-11-02T23:13:55.732Z,8.49
2023-11-02T23:16:22.937Z,8.52
2023-11-02T23:18:49.979Z,8.54
2023-11-02T23:21:19.679Z,8.54
2023-11-02T23:23:46.047Z,8.55
2023-11-02T23:26:12.472Z,8.58
2023-11-02T23:28:59.498Z,8.61
2023-11-02T23:31:35.781Z,8.60
2023-11-02T23:34:02.311Z,8.61
2023-11-02T23:36:34.077Z,8.61
2023-11-02T23:39:02.706Z,8.63
2023-11-02T23:41:38.715Z,8.63
2023-11-02T23:44:06.329Z,8.63
2023-11-02T23:46:38.715Z,8.68
2023-11-02T23:49:05.562Z,8.67
2023-11-02T23:51:35.059Z,8.67
2023-11-02T23:54:04.377Z,8.68
2023-11-02T23:56:38.387Z,8.69
2023-11-02T23:59:06.706Z,8.71
